Time;durP1;ratioP1;P1;durP2;ratioP2;P2;SDS_P1;SDS_P2;PMS_P1;PMS_P2;Temp;Humidity;BMP_temperature;BMP_pressure;BME280_temperature;BME280_humidity;BME280_pressure;Samples;Min_cycle;Max_cycle;Signal;HPM_P1;HPM_P2
2023/12/08 00:01:32;;;;;;;24.77;19.20;;;;;;;0.37;100.00;99655.34;5054871;28;20359;-59
2023/12/08 00:03:58;;;;;;;25.73;19.47;;;;;;;0.26;100.00;99637.88;5042547;28;20183;-59
2023/12/08 00:06:23;;;;;;;23.13;18.80;;;;;;;0.30;100.00;99619.22;5048212;28;20178;-60
2023/12/08 00:08:48;;;;;;;22.33;18.13;;;;;;;0.44;100.00;99628.25;5054181;28;20190;-59
2023/12/08 00:11:14;;;;;;;24.23;18.43;;;;;;;0.44;100.00;99636.66;5052263;28;20682;-58
2023/12/08 00:13:41;;;;;;;25.90;18.80;;;;;;;0.29;100.00;99601.56;5058917;28;20183;-59
2023/12/08 00:16:06;;;;;;;22.50;17.80;;;;;;;0.18;100.00;99585.75;5053387;28;20188;-59
2023/12/08 00:18:32;;;;;;;25.33;18.97;;;;;;;0.06;100.00;99580.06;5052355;28;20299;-59
2023/12/08 00:20:57;;;;;;;22.13;18.47;;;;;;;0.03;100.00;99585.19;5049200;28;20233;-59
2023/12/08 00:23:22;;;;;;;22.10;19.20;;;;;;;-0.05;100.00;99575.25;5066669;28;20193;-59
2023/12/08 00:25:47;;;;;;;23.27;19.57;;;;;;;-0.01;100.00;99597.06;5061299;28;20174;-58
2023/12/08 00:28:13;;;;;;;20.90;18.17;;;;;;;0.06;100.00;99584.31;5066489;28;20187;-58
2023/12/08 00:30:38;;;;;;;23.50;17.53;;;;;;;0.02;100.00;99578.47;5036215;27;20224;-58
2023/12/08 00:33:03;;;;;;;23.80;18.40;;;;;;;0.09;100.00;99579.19;5057900;28;20591;-58
2023/12/08 00:35:29;;;;;;;22.17;18.40;;;;;;;-0.02;100.00;99576.88;5063551;28;20194;-58
2023/12/08 00:37:54;;;;;;;22.77;17.33;;;;;;;0.06;100.00;99574.19;5067440;28;20529;-57
2023/12/08 00:40:19;;;;;;;22.03;17.27;;;;;;;0.16;100.00;99565.53;5053517;28;20231;-59
2023/12/08 00:42:44;;;;;;;21.87;17.47;;;;;;;0.16;100.00;99555.41;5063936;28;20195;-59
2023/12/08 00:45:10;;;;;;;23.57;18.57;;;;;;;0.11;100.00;99565.66;5062330;28;20190;-59
2023/12/08 00:47:35;;;;;;;24.13;17.83;;;;;;;0.06;100.00;99557.31;5066714;28;20184;-58
2023/12/08 00:50:00;;;;;;;22.03;18.47;;;;;;;0.19;100.00;99562.97;5064467;28;20182;-58
2023/12/08 00:52:26;;;;;;;22.47;17.60;;;;;;;0.20;100.00;99559.56;5066125;27;20231;-60
2023/12/08 00:54:51;;;;;;;21.83;18.27;;;;;;;0.19;100.00;99554.53;5074689;28;20555;-59
2023/12/08 00:57:16;;;;;;;22.40;17.53;;;;;;;0.21;100.00;99556.19;5072290;28;20216;-58
2023/12/08 00:59:41;;;;;;;22.73;17.90;;;;;;;0.18;100.00;99568.88;5074432;28;20642;-59
2023/12/08 01:02:07;;;;;;;21.77;17.87;;;;;;;0.12;100.00;99574.06;5078710;28;20232;-58
2023/12/08 01:04:33;;;;;;;22.63;17.97;;;;;;;0.28;100.00;99605.75;5073982;28;20276;-58
2023/12/08 01:06:58;;;;;;;22.57;18.03;;;;;;;0.46;100.00;99601.22;5056832;28;20195;-58
2023/12/08 01:09:24;;;;;;;23.30;17.03;;;;;;;0.30;100.00;99585.53;5061209;28;20559;-59
2023/12/08 01:11:49;;;;;;;19.97;16.70;;;;;;;0.39;100.00;99562.53;5070360;28;20326;-59
2023/12/08 01:14:14;;;;;;;20.60;18.33;;;;;;;0.26;100.00;99551.84;5055850;28;20554;-60
2023/12/08 01:16:42;;;;;;;22.97;17.50;;;;;;;0.23;100.00;99556.16;5053536;28;20221;-58
2023/12/08 01:19:10;;;;;;;20.80;17.53;;;;;;;0.29;100.00;99558.53;5054606;28;20226;-59
2023/12/08 01:21:36;;;;;;;22.03;17.97;;;;;;;0.40;100.00;99553.25;5045886;28;20254;-59
2023/12/08 01:24:01;;;;;;;20.73;16.90;;;;;;;0.50;100.00;99554.72;5057975;28;20652;-59
2023/12/08 01:26:27;;;;;;;20.50;17.30;;;;;;;0.46;100.00;99559.00;5053625;28;20177;-60
2023/12/08 01:28:52;;;;;;;20.83;17.57;;;;;;;0.58;100.00;99552.00;5054730;28;20631;-60
2023/12/08 01:31:17;;;;;;;20.00;17.13;;;;;;;0.58;100.00;99550.34;5045585;28;20223;-59
2023/12/08 01:33:43;;;;;;;22.63;18.40;;;;;;;0.74;100.00;99545.72;5056408;28;20573;-60
2023/12/08 01:36:08;;;;;;;21.30;17.37;;;;;;;0.68;100.00;99535.75;5054641;28;20180;-59
2023/12/08 01:38:33;;;;;;;21.17;17.93;;;;;;;0.71;100.00;99530.63;5054624;28;20553;-59
2023/12/08 01:40:59;;;;;;;21.50;17.10;;;;;;;0.62;100.00;99533.34;5050841;28;20254;-59
2023/12/08 01:43:24;;;;;;;20.23;17.00;;;;;;;0.70;100.00;99533.19;5061588;28;20180;-60
2023/12/08 01:45:49;;;;;;;20.20;17.43;;;;;;;0.60;100.00;99532.56;5066154;28;20622;-58
2023/12/08 01:48:15;;;;;;;21.13;17.23;;;;;;;0.68;100.00;99535.75;5073370;28;20192;-59
2023/12/08 01:50:40;;;;;;;19.53;16.07;;;;;;;0.55;100.00;99517.47;5064709;28;20221;-58
2023/12/08 01:53:06;;;;;;;18.77;16.27;;;;;;;0.50;100.00;99515.91;5073214;28;20294;-58
2023/12/08 01:55:32;;;;;;;20.53;17.30;;;;;;;0.56;100.00;99520.84;5072516;28;20189;-60
2023/12/08 01:57:58;;;;;;;20.37;16.97;;;;;;;0.66;100.00;99518.94;5072894;28;20308;-59
2023/12/08 02:00:24;;;;;;;19.87;16.83;;;;;;;0.70;100.00;99515.47;5065028;28;20242;-59
2023/12/08 02:02:50;;;;;;;21.60;16.13;;;;;;;0.74;100.00;99517.88;5076400;28;20277;-59
2023/12/08 02:05:16;;;;;;;18.80;15.93;;;;;;;0.59;100.00;99525.84;5053947;28;20200;-59
2023/12/08 02:07:43;;;;;;;20.20;16.60;;;;;;;0.72;100.00;99529.75;5056082;28;20635;-59
2023/12/08 02:10:09;;;;;;;19.37;17.27;;;;;;;0.52;100.00;99536.97;5063673;28;20296;-59
2023/12/08 02:12:34;;;;;;;19.23;17.10;;;;;;;0.69;100.00;99529.00;5087225;28;20223;-60
2023/12/08 02:14:59;;;;;;;23.20;17.17;;;;;;;0.73;100.00;99523.00;5060760;28;20184;-59
2023/12/08 02:17:30;;;;;;;21.70;16.33;;;;;;;0.67;100.00;99521.44;5072104;28;20620;-61
2023/12/08 02:19:55;;;;;;;20.30;16.80;;;;;;;0.83;100.00;99521.91;5058373;28;20192;-58
2023/12/08 02:22:24;;;;;;;19.50;17.10;;;;;;;0.59;100.00;99521.59;5058292;28;20596;-58
2023/12/08 02:24:49;;;;;;;19.27;16.83;;;;;;;0.67;100.00;99523.13;5053943;28;20186;-58
2023/12/08 02:27:15;;;;;;;22.40;16.97;;;;;;;0.54;100.00;99525.94;5072396;28;20255;-59
2023/12/08 02:29:41;;;;;;;20.77;16.77;;;;;;;0.65;100.00;99525.69;5071935;28;20198;-59
2023/12/08 02:32:30;;;;;;;20.87;16.80;;;;;;;0.69;100.00;99508.75;5076781;28;20311;-60
2023/12/08 02:34:57;;;;;;;21.70;17.67;;;;;;;0.67;100.00;99508.78;5038669;28;20250;-58
2023/12/08 02:37:25;;;;;;;19.77;17.67;;;;;;;0.65;100.00;99505.44;5068290;28;20211;-60
2023/12/08 02:39:52;;;;;;;20.70;16.37;;;;;;;0.57;100.00;99504.78;5070915;28;20193;-59
2023/12/08 02:42:18;;;;;;;21.60;17.33;;;;;;;0.70;100.00;99496.03;5060751;28;20735;-59
2023/12/08 02:44:44;;;;;;;20.13;17.67;;;;;;;0.57;100.00;99494.66;5064426;28;20198;-59
2023/12/08 02:47:09;;;;;;;21.97;18.00;;;;;;;0.66;100.00;99489.41;5072038;28;20517;-59
2023/12/08 02:49:34;;;;;;;20.43;18.23;;;;;;;0.68;100.00;99492.72;5071900;28;20178;-59
2023/12/08 02:52:00;;;;;;;21.83;17.27;;;;;;;0.80;100.00;99489.06;5063904;28;20230;-59
2023/12/08 02:54:25;;;;;;;23.30;17.37;;;;;;;0.64;100.00;99475.94;5052336;28;20682;-62
2023/12/08 02:56:50;;;;;;;24.23;18.40;;;;;;;0.74;100.00;99479.09;5052366;28;20254;-59
2023/12/08 02:59:16;;;;;;;21.73;17.50;;;;;;;0.89;100.00;99485.47;5052550;28;20216;-60
2023/12/08 03:01:41;;;;;;;20.47;17.90;;;;;;;0.85;100.00;99484.72;5054980;28;20589;-60
2023/12/08 03:04:06;;;;;;;19.60;16.60;;;;;;;0.78;100.00;99485.72;5055086;28;20235;-60
2023/12/08 03:06:31;;;;;;;22.90;19.40;;;;;;;0.88;100.00;99482.13;5050332;28;20275;-60
2023/12/08 03:08:56;;;;;;;20.13;17.93;;;;;;;0.82;100.00;99489.88;5052218;28;20635;-59
2023/12/08 03:11:22;;;;;;;24.23;17.93;;;;;;;1.04;100.00;99482.56;5064353;28;20230;-60
2023/12/08 03:13:47;;;;;;;20.80;16.77;;;;;;;0.98;100.00;99479.34;5075784;28;20184;-59
2023/12/08 03:16:12;;;;;;;20.87;17.60;;;;;;;1.17;100.00;99489.88;5058663;28;20257;-60
2023/12/08 03:18:38;;;;;;;19.57;16.27;;;;;;;1.27;100.00;99486.22;5051526;28;20315;-61
2023/12/08 03:21:03;;;;;;;19.73;16.47;;;;;;;1.38;100.00;99481.69;5050114;28;20232;-60
2023/12/08 03:23:28;;;;;;;20.00;16.50;;;;;;;1.18;100.00;99466.16;5059528;28;20578;-60
2023/12/08 03:25:54;;;;;;;20.23;18.03;;;;;;;1.13;100.00;99457.00;5052428;28;20177;-59
2023/12/08 03:28:19;;;;;;;22.20;18.33;;;;;;;1.15;100.00;99462.00;5052513;28;20188;-59
2023/12/08 03:30:44;;;;;;;19.53;17.13;;;;;;;1.09;100.00;99452.03;5047856;28;20227;-61
2023/12/08 03:33:09;;;;;;;20.90;16.23;;;;;;;1.12;100.00;99440.13;5062889;28;20631;-59
2023/12/08 03:35:35;;;;;;;20.77;17.17;;;;;;;0.84;100.00;99440.00;5053196;28;20208;-60
2023/12/08 03:38:00;;;;;;;23.27;18.37;;;;;;;0.80;100.00;99444.31;5053111;28;20242;-59
2023/12/08 03:40:25;;;;;;;21.70;17.73;;;;;;;0.70;100.00;99453.00;5044930;28;20582;-60
2023/12/08 03:42:50;;;;;;;20.13;16.93;;;;;;;0.77;100.00;99451.16;5063970;28;20189;-59
2023/12/08 03:45:16;;;;;;;25.43;18.40;;;;;;;0.69;100.00;99443.75;5052572;28;20191;-59
2023/12/08 03:47:41;;;;;;;23.80;17.80;;;;;;;0.67;100.00;99437.91;5053421;28;20665;-59
2023/12/08 03:50:07;;;;;;;23.53;17.40;;;;;;;0.65;100.00;99442.16;5043127;28;20181;-59
2023/12/08 03:52:32;;;;;;;20.73;16.83;;;;;;;0.77;100.00;99444.41;5049584;28;20181;-59
2023/12/08 03:54:57;;;;;;;21.60;17.80;;;;;;;0.93;100.00;99436.41;5061014;28;20183;-60
2023/12/08 03:57:23;;;;;;;20.23;16.83;;;;;;;0.86;100.00;99434.91;5070806;28;20198;-59
2023/12/08 03:59:48;;;;;;;18.97;16.77;;;;;;;1.10;100.00;99429.22;5060301;28;20550;-59
2023/12/08 04:02:13;;;;;;;21.77;17.47;;;;;;;1.01;100.00;99429.44;5056018;28;20220;-60
2023/12/08 04:04:41;;;;;;;20.73;17.50;;;;;;;1.02;100.00;99423.53;5061883;28;20183;-60
2023/12/08 04:07:07;;;;;;;20.70;16.97;;;;;;;1.17;100.00;99416.41;5070383;28;20194;-60
2023/12/08 04:09:32;;;;;;;22.03;18.73;;;;;;;1.10;100.00;99416.56;5060355;28;20211;-60
2023/12/08 04:11:57;;;;;;;21.40;17.90;;;;;;;1.06;100.00;99414.97;5069465;28;20285;-60
2023/12/08 04:14:23;;;;;;;22.17;18.87;;;;;;;1.12;100.00;99411.44;5052604;28;20283;-60
2023/12/08 04:16:51;;;;;;;21.00;18.23;;;;;;;1.03;100.00;99407.47;5051257;28;20170;-60
2023/12/08 04:19:18;;;;;;;23.67;18.40;;;;;;;0.95;100.00;99410.16;5051549;28;20240;-60
2023/12/08 04:21:44;;;;;;;24.83;17.70;;;;;;;0.77;100.00;99415.69;5054680;28;20357;-58
2023/12/08 04:24:09;;;;;;;19.73;17.63;;;;;;;0.73;100.00;99420.03;5054082;28;20205;-58
2023/12/08 04:26:34;;;;;;;22.93;17.83;;;;;;;0.62;100.00;99415.22;5054525;28;20183;-58
2023/12/08 04:28:59;;;;;;;22.67;18.53;;;;;;;0.41;100.00;99421.66;5055909;28;20632;-59
2023/12/08 04:31:25;;;;;;;23.20;19.20;;;;;;;0.34;100.00;99425.19;5035666;28;20231;-58
2023/12/08 04:33:51;;;;;;;25.97;19.63;;;;;;;0.38;100.00;99411.59;5060859;28;20175;-60
2023/12/08 04:36:16;;;;;;;22.23;19.00;;;;;;;0.23;100.00;99422.91;5055746;28;20244;-59
2023/12/08 04:38:42;;;;;;;24.03;19.00;;;;;;;0.11;100.00;99415.59;5054511;28;20638;-59
2023/12/08 04:41:07;;;;;;;25.10;20.80;;;;;;;0.25;100.00;99422.84;5053409;28;20321;-60
2023/12/08 04:43:32;;;;;;;27.07;20.73;;;;;;;0.20;100.00;99428.03;5061811;28;20192;-60
2023/12/08 04:45:58;;;;;;;26.90;20.47;;;;;;;0.31;100.00;99420.19;5056328;28;20234;-60
2023/12/08 04:48:23;;;;;;;30.47;21.07;;;;;;;0.11;100.00;99423.16;5054856;28;20183;-60
2023/12/08 04:50:50;;;;;;;27.17;21.47;;;;;;;0.22;100.00;99422.94;5050344;28;20716;-60
2023/12/08 04:53:15;;;;;;;26.27;20.87;;;;;;;-0.02;100.00;99427.69;5063559;28;20176;-61
2023/12/08 04:55:41;;;;;;;28.97;22.10;;;;;;;0.14;100.00;99430.72;5054833;28;20665;-60
2023/12/08 04:58:06;;;;;;;27.73;21.00;;;;;;;0.07;100.00;99427.47;5054521;28;20216;-61
2023/12/08 05:00:31;;;;;;;26.63;21.13;;;;;;;0.19;100.00;99431.44;5047958;28;20300;-62
2023/12/08 05:02:57;;;;;;;26.40;22.13;;;;;;;0.05;100.00;99431.75;5065962;28;20627;-60
2023/12/08 05:05:23;;;;;;;31.13;22.40;;;;;;;0.06;100.00;99430.03;5056348;28;20185;-60
2023/12/08 05:07:48;;;;;;;28.90;22.37;;;;;;;0.09;100.00;99428.28;5056357;28;20188;-60
2023/12/08 05:10:14;;;;;;;26.60;22.27;;;;;;;-0.09;100.00;99432.03;5050221;28;20174;-61
2023/12/08 05:12:39;;;;;;;30.30;22.60;;;;;;;-0.23;100.00;99426.44;5070410;28;20187;-60
2023/12/08 05:15:05;;;;;;;27.20;21.77;;;;;;;-0.15;100.00;99426.28;5059426;28;20170;-61
2023/12/08 05:17:30;;;;;;;28.77;22.70;;;;;;;-0.11;100.00;99422.81;5056211;28;20265;-60
2023/12/08 05:19:55;;;;;;;30.30;23.20;;;;;;;-0.06;100.00;99418.50;5059433;28;20187;-59
2023/12/08 05:22:21;;;;;;;35.63;24.67;;;;;;;0.03;100.00;99422.53;5059115;28;20733;-60
2023/12/08 05:24:46;;;;;;;39.43;26.40;;;;;;;-0.14;100.00;99412.78;5059054;28;20198;-61
2023/12/08 05:27:11;;;;;;;36.30;25.63;;;;;;;-0.14;100.00;99413.59;5056554;28;20182;-61
2023/12/08 05:29:36;;;;;;;39.40;26.33;;;;;;;-0.13;100.00;99409.38;5059575;28;20273;-61
2023/12/08 05:32:02;;;;;;;37.20;25.60;;;;;;;-0.31;100.00;99410.59;5059101;28;20216;-60
2023/12/08 05:34:27;;;;;;;43.93;28.90;;;;;;;-0.20;100.00;99406.16;5058520;28;20228;-60
2023/12/08 05:36:52;;;;;;;43.67;27.57;;;;;;;-0.09;100.00;99419.38;5055607;28;20218;-61
2023/12/08 05:39:17;;;;;;;45.27;27.90;;;;;;;-0.15;100.00;99431.34;5058390;28;20186;-61
2023/12/08 05:41:43;;;;;;;44.83;26.90;;;;;;;-0.08;100.00;99431.16;5056929;28;20221;-60
2023/12/08 05:44:08;;;;;;;38.67;26.50;;;;;;;0.01;100.00;99434.38;5058005;28;20182;-61
2023/12/08 05:46:33;;;;;;;44.10;27.60;;;;;;;-0.14;100.00;99438.88;5056322;28;20652;-60
2023/12/08 05:48:59;;;;;;;40.77;26.90;;;;;;;-0.07;100.00;99442.94;5057629;28;20179;-60
2023/12/08 05:51:24;;;;;;;42.00;26.53;;;;;;;-0.18;100.00;99440.63;5045923;28;20672;-60
2023/12/08 05:53:49;;;;;;;34.53;24.83;;;;;;;-0.29;100.00;99447.63;5057958;28;20228;-60
2023/12/08 05:56:14;;;;;;;38.23;26.70;;;;;;;-0.36;100.00;99441.00;5053478;28;20185;-61
2023/12/08 05:58:40;;;;;;;43.27;26.63;;;;;;;-0.48;100.00;99452.22;5052855;28;20186;-60
2023/12/08 06:01:05;;;;;;;51.67;26.93;;;;;;;-0.52;100.00;99448.91;5051012;28;20333;-60
2023/12/08 06:03:30;;;;;;;38.77;27.37;;;;;;;-0.52;100.00;99450.59;5060879;28;20922;-60
2023/12/08 06:05:56;;;;;;;41.40;27.63;;;;;;;-0.54;100.00;99454.88;5053201;28;20174;-61
2023/12/08 06:08:21;;;;;;;35.57;24.47;;;;;;;-0.60;100.00;99460.84;5066345;28;20185;-60
2023/12/08 06:10:46;;;;;;;49.53;26.60;;;;;;;-0.68;100.00;99453.44;5068339;28;20260;-60
2023/12/08 06:13:13;;;;;;;40.50;26.93;;;;;;;-0.70;100.00;99459.38;5082376;28;20177;-60
2023/12/08 06:15:39;;;;;;;40.80;29.83;;;;;;;-0.66;100.00;99466.03;5073069;28;20294;-60
2023/12/08 06:18:04;;;;;;;40.37;27.97;;;;;;;-0.59;100.00;99466.75;5070983;28;20258;-60
2023/12/08 06:20:30;;;;;;;44.47;27.90;;;;;;;-0.62;100.00;99467.66;5053379;28;20228;-59
2023/12/08 06:22:55;;;;;;;41.93;28.97;;;;;;;-0.61;100.00;99473.53;5083411;28;20234;-60
2023/12/08 06:25:21;;;;;;;44.93;27.37;;;;;;;-0.63;100.00;99475.22;5073164;28;20722;-60
2023/12/08 06:27:46;;;;;;;40.93;28.73;;;;;;;-0.68;100.00;99471.09;5057312;28;20189;-59
2023/12/08 06:30:12;;;;;;;41.33;27.33;;;;;;;-0.76;100.00;99469.59;5043962;28;20189;-61
2023/12/08 06:32:37;;;;;;;40.53;27.10;;;;;;;-0.60;100.00;99467.63;5066587;28;20178;-60
2023/12/08 06:35:03;;;;;;;40.07;28.27;;;;;;;-0.65;100.00;99473.56;5064809;28;20647;-60
2023/12/08 06:37:28;;;;;;;43.57;28.23;;;;;;;-0.54;100.00;99472.53;5052598;28;20198;-60
2023/12/08 06:39:53;;;;;;;42.57;29.50;;;;;;;-0.50;100.00;99462.38;5053221;28;20180;-60
2023/12/08 06:42:18;;;;;;;46.60;29.70;;;;;;;-0.38;100.00;99468.84;5058018;28;20299;-60
2023/12/08 06:44:44;;;;;;;43.53;30.57;;;;;;;-0.33;100.00;99469.59;5051179;28;20346;-61
2023/12/08 06:47:09;;;;;;;48.37;30.97;;;;;;;-0.40;100.00;99467.22;5052494;28;20181;-60
2023/12/08 06:49:35;;;;;;;50.60;29.50;;;;;;;-0.27;100.00;99467.78;5052175;28;20189;-61
2023/12/08 06:52:00;;;;;;;47.13;29.60;;;;;;;-0.28;100.00;99471.22;5057604;28;20220;-61
2023/12/08 06:54:25;;;;;;;54.27;30.63;;;;;;;-0.32;100.00;99465.38;5058352;28;20182;-60
2023/12/08 06:56:50;;;;;;;39.20;28.53;;;;;;;-0.34;100.00;99472.16;5071654;28;20180;-60
2023/12/08 06:59:16;;;;;;;45.60;30.23;;;;;;;-0.35;100.00;99478.06;5070089;28;20570;-60
2023/12/08 07:01:41;;;;;;;50.20;29.73;;;;;;;-0.26;100.00;99480.44;5062328;28;20257;-62
2023/12/08 07:04:07;;;;;;;55.43;33.20;;;;;;;-0.37;100.00;99472.22;5058475;28;20296;-60
2023/12/08 07:06:35;;;;;;;43.33;30.20;;;;;;;-0.25;100.00;99466.94;5052843;28;20224;-61
2023/12/08 07:09:00;;;;;;;46.63;30.53;;;;;;;-0.15;100.00;99461.66;5054982;28;20183;-60
2023/12/08 07:11:26;;;;;;;47.10;29.57;;;;;;;-0.34;100.00;99451.94;5053894;28;20239;-60
2023/12/08 07:13:51;;;;;;;49.20;31.30;;;;;;;-0.24;100.00;99448.34;5057640;28;20621;-61
2023/12/08 07:16:16;;;;;;;52.97;31.30;;;;;;;-0.35;100.00;99447.75;5052562;28;20609;-61
2023/12/08 07:18:42;;;;;;;58.33;33.87;;;;;;;-0.26;100.00;99452.63;5057451;28;20228;-61
2023/12/08 07:21:07;;;;;;;70.20;37.30;;;;;;;-0.26;100.00;99449.25;5052438;28;20647;-60
2023/12/08 07:23:33;;;;;;;72.03;40.13;;;;;;;-0.45;100.00;99448.78;5064299;28;20185;-61
2023/12/08 07:25:59;;;;;;;65.10;37.47;;;;;;;-0.50;100.00;99466.56;5057337;28;20623;-61
2023/12/08 07:28:24;;;;;;;68.20;38.30;;;;;;;-0.33;100.00;99471.28;5061983;28;20187;-60
2023/12/08 07:30:50;;;;;;;61.37;35.37;;;;;;;-0.19;100.00;99476.91;5052458;28;20229;-61
2023/12/08 07:33:15;;;;;;;69.60;35.63;;;;;;;-0.30;100.00;99471.22;5065144;28;20185;-60
2023/12/08 07:35:40;;;;;;;57.10;32.63;;;;;;;-0.24;100.00;99463.50;5055937;28;20184;-62
2023/12/08 07:38:05;;;;;;;62.33;33.00;;;;;;;-0.22;100.00;99463.50;5068527;28;20551;-61
2023/12/08 07:40:31;;;;;;;57.40;35.87;;;;;;;-0.18;100.00;99460.84;5052486;28;20221;-60
2023/12/08 07:42:56;;;;;;;60.30;35.20;;;;;;;-0.19;100.00;99466.81;5075008;28;20186;-61
2023/12/08 07:45:21;;;;;;;58.67;34.97;;;;;;;-0.08;100.00;99475.84;5071005;28;20216;-60
2023/12/08 07:47:47;;;;;;;61.20;35.23;;;;;;;-0.16;100.00;99478.56;5069435;28;20181;-61
2023/12/08 07:50:13;;;;;;;62.90;33.40;;;;;;;-0.29;100.00;99475.41;5061333;28;20563;-60
2023/12/08 07:52:41;;;;;;;65.07;32.43;;;;;;;-0.13;100.00;99475.94;5071359;28;20185;-60
2023/12/08 07:55:06;;;;;;;54.27;32.47;;;;;;;-0.14;100.00;99481.03;5071184;28;20245;-60
2023/12/08 07:57:31;;;;;;;53.17;32.60;;;;;;;0.07;100.00;99493.22;5069855;28;20178;-60
2023/12/08 07:59:58;;;;;;;54.73;34.17;;;;;;;0.04;100.00;99489.91;5070361;28;20279;-61
2023/12/08 08:02:23;;;;;;;61.07;34.20;;;;;;;0.22;100.00;99494.59;5076446;28;20773;-61
2023/12/08 08:04:48;;;;;;;59.87;33.10;;;;;;;0.23;100.00;99496.25;5062372;28;20178;-60
2023/12/08 08:07:13;;;;;;;51.50;31.00;;;;;;;0.14;100.00;99497.28;5063027;28;20607;-60
2023/12/08 08:09:39;;;;;;;56.37;32.60;;;;;;;0.26;100.00;99487.75;5059621;28;20195;-61
2023/12/08 08:12:04;;;;;;;49.80;31.90;;;;;;;0.35;100.00;99481.66;5059258;28;20229;-61
2023/12/08 08:14:29;;;;;;;53.93;34.97;;;;;;;0.22;100.00;99479.41;5062287;28;20229;-62
2023/12/08 08:16:55;;;;;;;51.47;35.53;;;;;;;0.24;100.00;99472.63;5068021;28;20225;-61
2023/12/08 08:19:20;;;;;;;58.83;34.83;;;;;;;0.11;100.00;99477.13;5066034;28;20689;-62
2023/12/08 08:21:45;;;;;;;49.33;32.73;;;;;;;0.20;100.00;99480.31;5070015;28;20224;-60
2023/12/08 08:24:11;;;;;;;59.83;33.60;;;;;;;0.10;100.00;99454.38;5072668;28;20193;-61
2023/12/08 08:26:36;;;;;;;53.97;33.03;;;;;;;0.09;100.00;99460.34;5068237;28;20190;-60
2023/12/08 08:29:01;;;;;;;54.97;34.63;;;;;;;-0.03;100.00;99453.81;5069863;28;20256;-61
2023/12/08 08:31:26;;;;;;;63.93;36.10;;;;;;;-0.01;100.00;99447.88;5043909;27;20673;-61
2023/12/08 08:33:52;;;;;;;54.10;35.77;;;;;;;-0.03;100.00;99451.31;5074181;28;20286;-60
2023/12/08 08:36:17;;;;;;;58.90;34.07;;;;;;;-0.01;100.00;99463.03;5066920;28;20520;-61
2023/12/08 08:38:43;;;;;;;56.23;33.83;;;;;;;0.14;100.00;99473.69;5061883;28;20196;-62
2023/12/08 08:41:08;;;;;;;54.13;31.37;;;;;;;0.14;100.00;99478.75;5058717;28;20225;-62
2023/12/08 08:43:34;;;;;;;54.83;31.90;;;;;;;0.03;100.00;99488.28;5064725;28;20174;-60
2023/12/08 08:45:59;;;;;;;43.73;31.43;;;;;;;0.14;100.00;99497.28;5065289;28;20540;-60
2023/12/08 08:48:25;;;;;;;48.37;32.23;;;;;;;0.31;100.00;99496.94;5065203;28;20211;-61
2023/12/08 08:50:50;;;;;;;65.07;33.37;;;;;;;0.24;100.00;99494.56;5052188;28;20433;-61
2023/12/08 08:53:18;;;;;;;49.33;30.77;;;;;;;0.13;100.00;99492.28;5064155;28;20216;-60
2023/12/08 08:55:44;;;;;;;42.03;29.93;;;;;;;0.27;100.00;99497.03;5059144;28;20254;-60
2023/12/08 08:58:09;;;;;;;52.53;30.20;;;;;;;0.39;100.00;99503.53;5062726;28;20189;-62
2023/12/08 09:00:35;;;;;;;41.23;29.87;;;;;;;0.39;100.00;99501.81;5056817;28;20383;-61
2023/12/08 09:03:01;;;;;;;44.27;29.83;;;;;;;0.58;100.00;99506.47;5064978;28;20179;-61
2023/12/08 09:05:26;;;;;;;41.83;29.50;;;;;;;0.68;100.00;99512.97;5060367;28;20210;-61
2023/12/08 09:07:52;;;;;;;43.43;30.43;;;;;;;0.36;100.00;99508.63;5056499;28;20604;-60
2023/12/08 09:10:17;;;;;;;48.83;30.57;;;;;;;0.44;100.00;99510.13;5054771;27;20201;-63
2023/12/08 09:12:42;;;;;;;47.40;29.57;;;;;;;0.54;100.00;99512.47;5078483;28;20635;-64
2023/12/08 09:15:08;;;;;;;46.43;29.27;;;;;;;0.47;100.00;99509.22;5064564;28;20184;-63
2023/12/08 09:17:33;;;;;;;45.87;29.80;;;;;;;0.64;100.00;99499.56;5067029;28;20304;-62
2023/12/08 09:19:58;;;;;;;45.70;29.03;;;;;;;0.53;100.00;99491.38;5072053;28;20264;-63
2023/12/08 09:22:24;;;;;;;42.57;28.60;;;;;;;0.56;100.00;99493.00;5058951;28;20240;-64
2023/12/08 09:24:49;;;;;;;46.13;29.83;;;;;;;0.79;100.00;99492.47;5060423;28;20229;-65
2023/12/08 09:27:14;;;;;;;50.87;32.33;;;;;;;0.74;100.00;99494.28;5066750;28;20180;-63
2023/12/08 09:29:39;;;;;;;49.60;29.73;;;;;;;0.59;100.00;99498.00;5061436;28;21698;-61
2023/12/08 09:32:05;;;;;;;51.00;30.53;;;;;;;0.37;100.00;99505.25;5058845;28;20216;-62
2023/12/08 09:34:30;;;;;;;43.83;30.77;;;;;;;0.44;100.00;99505.06;5053732;28;20188;-61
2023/12/08 09:36:56;;;;;;;47.47;31.43;;;;;;;0.42;100.00;99500.91;5062466;28;20318;-61
2023/12/08 09:39:21;;;;;;;46.73;30.07;;;;;;;0.57;100.00;99509.84;5061253;28;20204;-62
2023/12/08 09:41:54;;;;;;;46.47;31.50;;;;;;;0.62;100.00;99508.88;5056251;28;20219;-62
2023/12/08 09:44:20;;;;;;;43.00;30.37;;;;;;;0.59;100.00;99514.00;5057194;28;20199;-61
2023/12/08 09:46:45;;;;;;;43.50;30.70;;;;;;;0.83;100.00;99521.91;5068702;28;20184;-62
2023/12/08 09:49:28;;;;;;;41.93;30.23;;;;;;;0.84;100.00;99515.16;5063402;28;20192;-61
2023/12/08 09:51:55;;;;;;;40.00;29.87;;;;;;;0.86;100.00;99504.09;5046737;28;20227;-60
2023/12/08 09:54:20;;;;;;;44.77;29.13;;;;;;;0.69;100.00;99501.16;5069156;28;20198;-61
2023/12/08 09:56:50;;;;;;;46.60;29.77;;;;;;;0.71;100.00;99499.41;5070706;28;20180;-61
2023/12/08 09:59:19;;;;;;;46.07;28.63;;;;;;;0.97;100.00;99503.84;5071064;28;20195;-61
2023/12/08 10:01:45;;;;;;;44.67;30.03;;;;;;;0.95;100.00;99503.88;5059843;28;20446;-60
2023/12/08 10:04:10;;;;;;;43.47;31.30;;;;;;;0.80;100.00;99499.19;5053646;28;20714;-60
2023/12/08 10:06:38;;;;;;;45.63;32.10;;;;;;;0.89;100.00;99504.03;5050954;28;20708;-60
2023/12/08 10:09:04;;;;;;;45.00;31.20;;;;;;;0.75;100.00;99498.47;5072765;28;20700;-60
2023/12/08 10:11:30;;;;;;;49.10;32.30;;;;;;;0.81;100.00;99505.94;5071899;28;20229;-61
2023/12/08 10:13:56;;;;;;;55.80;34.30;;;;;;;0.98;100.00;99500.47;5070101;28;20189;-60
2023/12/08 10:16:22;;;;;;;51.47;33.27;;;;;;;1.04;100.00;99499.47;5065615;28;20191;-60
2023/12/08 10:18:48;;;;;;;44.90;32.17;;;;;;;1.00;100.00;99496.16;5052907;28;20593;-60
2023/12/08 10:21:15;;;;;;;47.87;33.33;;;;;;;0.78;100.00;99496.72;5051580;28;20235;-60
2023/12/08 10:23:43;;;;;;;53.93;36.00;;;;;;;1.04;100.00;99496.94;5058962;28;20188;-60
2023/12/08 10:26:09;;;;;;;51.33;35.47;;;;;;;1.11;100.00;99491.66;5053399;28;20196;-60
2023/12/08 10:28:34;;;;;;;46.13;34.50;;;;;;;0.96;100.00;99487.81;5052632;28;20191;-61
2023/12/08 10:30:59;;;;;;;41.67;31.30;;;;;;;0.89;100.00;99493.88;5049972;28;20232;-60
2023/12/08 10:33:25;;;;;;;42.77;30.63;;;;;;;1.04;100.00;99495.25;5060844;28;20546;-61
2023/12/08 10:35:51;;;;;;;43.33;30.33;;;;;;;1.04;100.00;99496.94;5053125;28;20186;-61
2023/12/08 10:38:18;;;;;;;43.80;29.67;;;;;;;1.11;100.00;99504.31;5048934;28;20291;-61
2023/12/08 10:40:47;;;;;;;47.30;31.37;;;;;;;1.18;100.00;99501.63;5047059;28;20263;-61
2023/12/08 10:43:23;;;;;;;44.83;30.77;;;;;;;0.94;100.00;99497.16;5069184;28;20184;-61
2023/12/08 10:45:52;;;;;;;43.50;29.77;;;;;;;0.79;100.00;99492.47;5057250;28;20188;-61
2023/12/08 10:48:21;;;;;;;41.93;31.17;;;;;;;0.94;100.00;99491.25;5050844;28;20687;-61
2023/12/08 10:50:51;;;;;;;40.57;29.13;;;;;;;1.24;100.00;99491.34;5034652;28;20212;-61
2023/12/08 10:53:18;;;;;;;36.27;27.63;;;;;;;1.13;100.00;99489.94;5069253;28;20276;-61
2023/12/08 10:55:49;;;;;;;44.23;29.97;;;;;;;1.20;100.00;99493.13;5070320;28;20204;-61
2023/12/08 10:58:15;;;;;;;39.20;28.77;;;;;;;1.21;100.00;99492.25;5071860;28;20181;-61
2023/12/08 11:00:41;;;;;;;35.03;25.47;;;;;;;1.44;100.00;99495.91;5051095;28;20726;-61
2023/12/08 11:03:09;;;;;;;37.07;26.73;;;;;;;1.39;100.00;99500.25;5062661;28;20308;-60
2023/12/08 11:05:43;;;;;;;43.73;28.73;;;;;;;1.38;100.00;99503.69;5051841;28;20238;-62
2023/12/08 11:08:12;;;;;;;37.50;27.57;;;;;;;1.04;100.00;99499.47;5051748;28;20226;-61